Changewater, New Jersey
Current Conditions -  °F | °C
As of 3:53 AM on Sunday 26 Oct 2014 (Local Time) from KSMQ Reporting Station
Broken Clouds Broken Clouds  
Wind Chill: 49°   Ceiling: 6500
Heat Index: 49°   Visibility: 10mi
Dew Point: 44°   Wind: 0mph
Humidity: 83%   Direction: NA
Pressure: 29.56"   Gusts: NA
Location:  40.74°N, 74.94°W
Report Text: KSMQ 260753Z AUTO 00000KT 10SM BKN065 09/07 A2956 RMK AO2 SLP010 T00940067
Loading
Personal Weather Stations






























Interactive Weather Map
Tropical Storm Tracking
New forecast layout! Learn more

10-Day Weather Forecast

Advertisements
Track Severe Weather on mobile